createdAt,value
2022-12-19T00:01:39.811Z,-0.04
2022-12-19T00:06:44.074Z,0.08
2022-12-19T00:11:52.141Z,0.17
2022-12-19T00:16:57.095Z,0.25
2022-12-19T00:21:59.428Z,0.27
2022-12-19T00:27:01.190Z,0.35
2022-12-19T00:32:04.137Z,0.41
2022-12-19T00:37:05.964Z,0.33
2022-12-19T00:42:07.633Z,0.14
2022-12-19T00:47:09.690Z,0.03
2022-12-19T00:52:12.225Z,0.10
2022-12-19T00:57:13.956Z,0.19
2022-12-19T01:02:15.669Z,0.15
2022-12-19T01:07:17.425Z,0.10
2022-12-19T01:12:37.860Z,0.10
2022-12-19T01:17:43.988Z,0.12
2022-12-19T01:22:47.262Z,0.15
2022-12-19T01:27:48.899Z,0.19
2022-12-19T01:32:50.570Z,0.18
2022-12-19T01:37:53.895Z,0.16
2022-12-19T01:43:14.019Z,0.15
2022-12-19T01:48:22.378Z,0.22
2022-12-19T01:53:27.571Z,0.24
2022-12-19T01:58:30.924Z,0.07
2022-12-19T02:03:34.727Z,-0.01
2022-12-19T02:08:37.311Z,-0.01
2022-12-19T02:13:39.700Z,-0.05
2022-12-19T02:19:21.227Z,-0.06
2022-12-19T02:24:29.911Z,-0.05
2022-12-19T02:29:50.454Z,-0.11
2022-12-19T02:35:18.449Z,-0.16
2022-12-19T02:40:29.495Z,-0.28
2022-12-19T02:45:37.002Z,-0.30
2022-12-19T02:50:41.761Z,-0.37
2022-12-19T02:56:22.071Z,-0.42
2022-12-19T03:01:36.577Z,-0.47
2022-12-19T03:07:03.679Z,-0.48
2022-12-19T03:12:15.750Z,-0.60
2022-12-19T03:17:19.508Z,-0.64
2022-12-19T03:22:22.372Z,-0.76
2022-12-19T03:27:33.174Z,-0.91
2022-12-19T03:32:38.107Z,-1.03
2022-12-19T03:37:42.765Z,-1.23
2022-12-19T03:43:06.345Z,-1.52
2022-12-19T03:48:19.418Z,-1.62
2022-12-19T03:53:50.428Z,-1.57
2022-12-19T03:59:00.128Z,-1.59
2022-12-19T04:04:03.828Z,-1.55
2022-12-19T04:09:06.310Z,-1.51
2022-12-19T04:14:14.893Z,-1.50
2022-12-19T04:19:23.947Z,-1.45
2022-12-19T04:24:33.192Z,-1.37
2022-12-19T04:29:38.650Z,-1.44
2022-12-19T04:34:43.023Z,-1.45
2022-12-19T04:39:45.034Z,-1.45
2022-12-19T04:44:47.251Z,-1.38
2022-12-19T04:49:49.526Z,-1.49
2022-12-19T04:54:51.216Z,-1.56
2022-12-19T04:59:52.925Z,-1.72
2022-12-19T05:04:55.008Z,-1.78
2022-12-19T05:09:56.718Z,-1.93
2022-12-19T05:14:58.374Z,-1.99
2022-12-19T05:20:00.068Z,-2.07
2022-12-19T05:25:01.804Z,-2.12
2022-12-19T05:30:03.958Z,-2.19
2022-12-19T05:35:06.087Z,-2.15
2022-12-19T05:40:10.633Z,-2.15
2022-12-19T05:45:12.547Z,-2.27
2022-12-19T05:50:15.686Z,-2.39
2022-12-19T05:55:17.858Z,-2.39
2022-12-19T06:00:19.984Z,-2.39
2022-12-19T06:05:21.702Z,-2.31
2022-12-19T06:10:23.418Z,-2.32
2022-12-19T06:15:25.120Z,-2.22
2022-12-19T06:20:26.808Z,-2.16
2022-12-19T06:25:28.513Z,-2.14
2022-12-19T06:30:30.215Z,-2.05
2022-12-19T06:35:31.866Z,-2.06
2022-12-19T06:40:52.395Z,-2.03
2022-12-19T06:45:54.089Z,-2.04
2022-12-19T06:50:55.809Z,-2.08
2022-12-19T06:55:59.324Z,-2.26
2022-12-19T07:01:01.629Z,-2.33
2022-12-19T07:06:05.020Z,-2.55
2022-12-19T07:11:06.864Z,-2.85
2022-12-19T07:16:09.279Z,-2.75
2022-12-19T07:21:11.491Z,-2.76
2022-12-19T07:26:13.371Z,-2.68
2022-12-19T07:31:15.092Z,-2.56
2022-12-19T07:36:16.798Z,-2.47
2022-12-19T07:41:18.905Z,-2.25
2022-12-19T07:46:21.778Z,-2.01
2022-12-19T07:51:23.637Z,-1.83
2022-12-19T07:56:25.336Z,-1.71
2022-12-19T08:01:28.327Z,-1.68
2022-12-19T08:06:31.044Z,-1.49
2022-12-19T08:11:32.736Z,-1.25
2022-12-19T08:16:55.639Z,-0.97
2022-12-19T08:21:58.081Z,-0.81
2022-12-19T08:26:59.755Z,-0.79
2022-12-19T08:32:01.529Z,-0.72
2022-12-19T08:37:03.222Z,-0.74
2022-12-19T08:42:05.015Z,-0.77
2022-12-19T08:47:06.836Z,-0.85
2022-12-19T08:52:08.542Z,-0.85
2022-12-19T08:57:10.287Z,-0.69
2022-12-19T09:02:12.281Z,-0.37
2022-12-19T09:07:15.627Z,-0.13
2022-12-19T09:12:17.928Z,-0.09
2022-12-19T09:17:19.640Z,0.10
2022-12-19T09:22:21.460Z,0.41
2022-12-19T09:27:29.748Z,0.82
2022-12-19T09:32:32.491Z,1.16
2022-12-19T09:37:34.323Z,1.51
2022-12-19T09:42:49.058Z,1.75
2022-12-19T09:47:57.970Z,1.99
2022-12-19T09:53:06.146Z,1.94
2022-12-19T09:58:13.717Z,1.83
2022-12-19T10:03:41.566Z,1.85
2022-12-19T10:08:54.985Z,2.05
2022-12-19T10:14:36.212Z,2.40
2022-12-19T10:20:05.860Z,2.78
2022-12-19T10:25:29.510Z,3.24
2022-12-19T10:30:39.312Z,3.71
2022-12-19T10:35:43.658Z,4.12
2022-12-19T10:40:53.711Z,4.41
2022-12-19T10:46:02.652Z,4.68
2022-12-19T10:51:06.268Z,4.91
2022-12-19T10:56:25.451Z,5.12
2022-12-19T11:01:40.512Z,5.36
2022-12-19T11:06:48.508Z,5.54
2022-12-19T11:15:18.518Z,5.73
2022-12-19T11:24:22.755Z,5.96
2022-12-19T11:29:40.716Z,6.11
2022-12-19T11:30:47.822Z,6.21
2022-12-19T11:34:07.135Z,6.36
2022-12-19T11:39:50.217Z,6.50
2022-12-19T11:45:14.345Z,6.65
2022-12-19T11:50:26.686Z,6.77
2022-12-19T11:55:41.037Z,6.89
2022-12-19T12:01:03.081Z,7.01
2022-12-19T12:06:13.460Z,7.17
2022-12-19T12:17:28.910Z,7.29
2022-12-19T12:31:05.201Z,7.38
2022-12-19T12:31:09.677Z,7.49
2022-12-19T12:31:48.871Z,7.56
2022-12-19T12:35:52.123Z,7.53
2022-12-19T12:40:13.089Z,7.54
2022-12-19T12:45:26.126Z,7.55
2022-12-19T12:50:28.726Z,7.59
2022-12-19T12:55:35.249Z,7.61
2022-12-19T13:00:37.097Z,7.62
2022-12-19T13:05:57.307Z,7.68
2022-12-19T13:11:02.893Z,7.73
2022-12-19T13:16:43.003Z,7.73
2022-12-19T13:22:03.609Z,7.70
2022-12-19T13:27:25.213Z,7.71
2022-12-19T13:32:33.656Z,7.73
2022-12-19T13:40:00.348Z,7.76
2022-12-19T13:43:29.245Z,7.78
2022-12-19T13:48:45.639Z,7.72
2022-12-19T13:53:59.026Z,7.71
2022-12-19T13:59:04.015Z,7.66
2022-12-19T14:04:13.062Z,7.59
2022-12-19T14:11:28.085Z,7.52
2022-12-19T14:15:13.074Z,7.43
2022-12-19T14:22:01.515Z,7.32
2022-12-19T14:28:15.124Z,7.24
2022-12-19T14:31:17.952Z,7.15
2022-12-19T14:36:29.790Z,6.99
2022-12-19T14:42:00.967Z,6.85
2022-12-19T14:54:01.917Z,6.76
2022-12-19T14:54:55.047Z,6.68
2022-12-19T14:58:53.567Z,6.62
2022-12-19T15:03:39.427Z,6.54
2022-12-19T15:09:34.257Z,6.44
2022-12-19T15:14:56.994Z,6.48
2022-12-19T15:19:26.518Z,6.49
2022-12-19T15:24:28.114Z,6.51
2022-12-19T15:29:31.372Z,6.57
2022-12-19T15:34:41.624Z,6.62
2022-12-19T15:39:48.268Z,6.65
2022-12-19T15:44:51.217Z,6.71
2022-12-19T15:49:52.920Z,6.72
2022-12-19T15:54:57.362Z,6.74
2022-12-19T16:00:02.257Z,6.75
2022-12-19T16:05:07.608Z,6.77
2022-12-19T16:10:12.953Z,6.75
2022-12-19T16:15:35.331Z,6.75
2022-12-19T16:20:37.792Z,6.75
2022-12-19T16:25:45.835Z,6.75
2022-12-19T16:30:50.327Z,6.72
2022-12-19T16:36:04.039Z,6.73
2022-12-19T16:41:06.311Z,6.77
2022-12-19T16:46:12.455Z,6.84
2022-12-19T16:51:21.997Z,6.89
2022-12-19T16:56:34.998Z,6.91
2022-12-19T17:01:36.865Z,6.99
2022-12-19T17:06:38.714Z,7.04
2022-12-19T17:11:40.809Z,7.08
2022-12-19T17:16:42.567Z,7.14
2022-12-19T17:21:44.661Z,7.15
2022-12-19T17:26:47.452Z,7.20
2022-12-19T17:31:49.270Z,7.25
2022-12-19T17:36:51.324Z,7.32
2022-12-19T17:41:55.397Z,7.39
2022-12-19T17:46:57.279Z,7.42
2022-12-19T17:51:59.888Z,7.44
2022-12-19T17:57:01.621Z,7.43
2022-12-19T18:02:03.545Z,7.43
2022-12-19T18:07:14.464Z,7.46
2022-12-19T18:12:16.293Z,7.49
2022-12-19T18:17:25.692Z,7.53
2022-12-19T18:22:27.533Z,7.55
2022-12-19T18:27:29.323Z,7.62
2022-12-19T18:32:31.111Z,7.68
2022-12-19T18:37:32.933Z,7.75
2022-12-19T18:42:34.525Z,7.74
2022-12-19T18:47:36.260Z,7.76
2022-12-19T18:52:37.837Z,7.76
2022-12-19T18:57:39.539Z,7.79
2022-12-19T19:02:44.459Z,7.85
2022-12-19T19:07:46.828Z,7.88
2022-12-19T19:12:50.535Z,7.89
2022-12-19T19:17:58.090Z,7.88
2022-12-19T19:23:00.243Z,7.89
2022-12-19T19:28:03.198Z,7.93
2022-12-19T19:33:11.596Z,7.93
2022-12-19T19:38:15.202Z,7.96
2022-12-19T19:43:17.193Z,8.05
2022-12-19T19:48:18.913Z,8.10
2022-12-19T19:53:20.557Z,8.14
2022-12-19T19:58:22.139Z,8.17
2022-12-19T20:03:24.060Z,8.18
2022-12-19T20:08:26.361Z,8.22
2022-12-19T20:13:31.057Z,8.21
2022-12-19T20:18:32.849Z,8.21
2022-12-19T20:23:34.704Z,8.21
2022-12-19T20:28:41.017Z,8.21
2022-12-19T20:33:55.574Z,8.22
2022-12-19T20:38:57.265Z,8.21
2022-12-19T20:43:59.555Z,8.23
2022-12-19T20:49:01.379Z,8.27
2022-12-19T20:54:04.656Z,8.32
2022-12-19T20:59:06.566Z,8.38
2022-12-19T21:04:08.661Z,8.42
2022-12-19T21:09:11.444Z,8.46
2022-12-19T21:14:13.223Z,8.46
2022-12-19T21:19:15.068Z,8.47
2022-12-19T21:24:16.813Z,8.53
2022-12-19T21:29:18.838Z,8.57
2022-12-19T21:34:20.655Z,8.59
2022-12-19T21:39:25.640Z,8.57
2022-12-19T21:44:27.511Z,8.57
2022-12-19T21:49:29.385Z,8.54
2022-12-19T21:54:31.245Z,8.53
2022-12-19T21:59:33.073Z,8.53
2022-12-19T22:04:34.914Z,8.53
2022-12-19T22:09:37.043Z,8.53
2022-12-19T22:14:44.929Z,8.51
2022-12-19T22:19:46.656Z,8.53
2022-12-19T22:24:48.391Z,8.54
2022-12-19T22:29:50.042Z,8.58
2022-12-19T22:34:51.862Z,8.63
2022-12-19T22:39:53.703Z,8.66
2022-12-19T22:44:55.431Z,8.70
2022-12-19T22:49:57.240Z,8.75
2022-12-19T22:54:59.065Z,8.79
2022-12-19T23:00:00.713Z,8.84
2022-12-19T23:05:02.498Z,8.84
2022-12-19T23:10:04.407Z,8.89
2022-12-19T23:15:06.548Z,8.90
2022-12-19T23:20:08.951Z,8.85
2022-12-19T23:25:10.804Z,8.84
2022-12-19T23:30:13.084Z,8.81
2022-12-19T23:35:14.996Z,8.81
2022-12-19T23:40:17.446Z,8.82
2022-12-19T23:45:19.455Z,8.77
2022-12-19T23:50:21.276Z,8.80
2022-12-19T23:55:23.009Z,8.79
